| time (UTC) | temp F | wind direction | speed MPH | gust MPH | rain 1hr in | rain 24hr in | rain mn in | humidity % | barometer mb |
| 20260504081554 | 61 | 360 | 5.0 | 12.0 | 0.00 | 0.00 | 0.00 | 77 | 1014.8 |
| 20260504044536 | 63 | 360 | 0.0 | 0.0 | 0.00 | 0.00 | 0.00 | 74 | 1014.6 |
| 20260504043045 | 63 | 360 | 0.0 | 0.0 | 0.00 | 0.00 | 0.00 | 74 | 1014.4 |
| 20260504041535 | 63 | 360 | 0.0 | 5.0 | 0.00 | 0.00 | 0.00 | 74 | 1014.3 |
| 20260504040031 | 63 | 360 | 0.0 | 4.0 | 0.00 | 0.00 | 0.00 | 74 | 1013.9 |
| 20260504034530 | 63 | 360 | 0.0 | 1.0 | 0.00 | 0.00 | 0.00 | 73 | 1013.8 |
| 20260504033029 | 63 | 360 | 0.0 | 0.0 | 0.00 | 0.00 | 0.00 | 73 | 1013.9 |
| 20260504031528 | 64 | 360 | 0.0 | 0.0 | 0.00 | 0.00 | 0.00 | 73 | 1013.9 |
| 20260504030034 | 64 | 360 | 0.0 | 2.0 | 0.00 | 0.00 | 0.00 | 73 | 1013.8 |
| 20260504024528 | 64 | 360 | 0.0 | 2.0 | 0.00 | 0.00 | 0.00 | 72 | 1013.6 |
| 20260504023026 | 64 | 360 | 0.0 | 4.0 | 0.00 | 0.00 | 0.00 | 72 | 1013.5 |
| 20260504021525 | 64 | 360 | 0.0 | 4.0 | 0.00 | 0.00 | 0.00 | 70 | 1013.5 |
| 20260504020035 | 65 | 360 | 1.0 | 5.0 | 0.00 | 0.00 | 0.00 | 68 | 1013.6 |
| 20260504014524 | 65 | 360 | 0.0 | 4.0 | 0.00 | 0.00 | 0.00 | 66 | 1013.4 |
| 20260504013056 | 65 | 360 | 0.0 | 5.0 | 0.00 | 0.00 | 0.00 | 68 | 1013.4 |
| 20260504011522 | 65 | 360 | 2.0 | 8.0 | 0.00 | 0.00 | 0.00 | 68 | 1013.3 |
| 20260504010021 | 65 | 360 | 0.0 | 7.0 | 0.00 | 0.00 | 0.00 | 68 | 1013.1 |
| 20260504004535 | 65 | 360 | 1.0 | 6.0 | 0.00 | 0.00 | 0.00 | 68 | 1013.0 |
| 20260504003020 | 65 | 360 | 3.0 | 6.0 | 0.00 | 0.00 | 0.00 | 66 | 1012.9 |
| 20260504001530 | 65 | 360 | 5.0 | 9.0 | 0.00 | 0.00 | 0.00 | 66 | 1012.8 |
| 20260504000019 | 65 | 360 | 4.0 | 8.0 | 0.00 | 0.00 | 0.00 | 66 | 1012.8 |
| 20260503234521 | 66 | 360 | 5.0 | 10.0 | 0.00 | 0.00 | 0.00 | 66 | 1012.8 |
| 20260503233019 | 66 | 360 | 4.0 | 8.0 | 0.00 | 0.00 | 0.00 | 67 | 1012.2 |
| 20260503231521 | 66 | 292 | 3.0 | 8.0 | 0.00 | 0.00 | 0.00 | 65 | 1012.4 |
| 20260503230017 | 66 | 360 | 4.0 | 9.0 | 0.00 | 0.00 | 0.00 | 67 | 1012.6 |
| 20260503224516 | 66 | 360 | 5.0 | 9.0 | 0.00 | 0.00 | 0.00 | 65 | 1012.8 |
| 20260503223016 | 66 | 282 | 5.0 | 8.0 | 0.00 | 0.00 | 0.00 | 63 | 1012.8 |
| 20260503221516 | 66 | 360 | 5.0 | 9.0 | 0.00 | 0.00 | 0.00 | 63 | 1012.9 |
| 20260503220114 | 66 | 284 | 5.0 | 9.0 | 0.00 | 0.00 | 0.00 | 65 | 1012.9 |
| 20260503214525 | 66 | 360 | 4.0 | 9.0 | 0.00 | 0.00 | 0.00 | 65 | 1013.1 |
| 20260503213112 | 66 | 360 | 5.0 | 9.0 | 0.00 | 0.00 | 0.00 | 64 | 1013.1 |
| 20260503211513 | 66 | 360 | 4.0 | 9.0 | 0.00 | 0.00 | 0.00 | 67 | 1013.2 |
| 20260503210015 | 66 | 303 | 5.0 | 11.0 | 0.00 | 0.00 | 0.00 | 66 | 1013.3 |
| 20260503204514 | 66 | 304 | 5.0 | 9.0 | 0.00 | 0.00 | 0.00 | 66 | 1013.4 |
| 20260503203009 | 67 | 277 | 7.0 | 10.0 | 0.00 | 0.00 | 0.00 | 63 | 1013.4 |
| 20260503201505 | 66 | 278 | 5.0 | 11.0 | 0.00 | 0.00 | 0.00 | 65 | 1013.5 |
| 20260503200004 | 66 | 284 | 6.0 | 10.0 | 0.00 | 0.00 | 0.00 | 68 | 1013.5 |
| 20260503194503 | 66 | 313 | 4.0 | 11.0 | 0.00 | 0.00 | 0.00 | 69 | 1013.8 |
| 20260503193004 | 65 | 316 | 5.0 | 10.0 | 0.00 | 0.00 | 0.00 | 70 | 1013.9 |
| 20260503191502 | 66 | 271 | 4.0 | 10.0 | 0.00 | 0.00 | 0.00 | 69 | 1013.8 |
| 20260503190101 | 66 | 261 | 6.0 | 14.0 | 0.00 | 0.00 | 0.00 | 69 | 1013.9 |
| 20260503184601 | 66 | 267 | 4.0 | 9.0 | 0.00 | 0.00 | 0.00 | 67 | 1013.8 |
| 20260503183105 | 66 | 285 | 4.0 | 10.0 | 0.00 | 0.00 | 0.00 | 69 | 1013.8 |
| 20260503181607 | 66 | 271 | 5.0 | 12.0 | 0.00 | 0.00 | 0.00 | 69 | 1013.9 |
| 20260503180054 | 65 | 221 | 3.0 | 9.0 | 0.00 | 0.00 | 0.00 | 71 | 1013.8 |
| 20260503174558 | 65 | 307 | 3.0 | 8.0 | 0.00 | 0.00 | 0.00 | 72 | 1013.8 |
| 20260503173051 | 65 | 11 | 3.0 | 10.0 | 0.00 | 0.00 | 0.00 | 73 | 1013.7 |
| 20260503171546 | 64 | 360 | 3.0 | 8.0 | 0.00 | 0.00 | 0.00 | 73 | 1013.7 |